Time;durP1;ratioP1;P1;durP2;ratioP2;P2;SDS_P1;SDS_P2;PMS_P1;PMS_P2;Temp;Humidity;BMP_temperature;BMP_pressure;BME280_temperature;BME280_humidity;BME280_pressure;Samples;Min_cycle;Max_cycle;Signal;HPM_P1;HPM_P2
2022/09/14 00:00:33;;;;;;;7.15;1.33;;;;;;;;;;6251487;22;20019;-85
2022/09/14 00:03:19;;;;;;;6.75;1.25;;;;;;;;;;6259649;22;20019;-85
2022/09/14 00:05:51;;;;;;;3.60;0.98;;;;;;;;;;6274533;22;20023;-85
2022/09/14 00:08:43;;;;;;;5.68;1.15;;;;;;;;;;6289813;22;20050;-85
2022/09/14 00:11:15;;;;;;;7.28;1.00;;;;;;;;;;6287928;22;20016;-85
2022/09/14 00:13:45;;;;;;;3.55;1.10;;;;;;;;;;6282608;22;20016;-84
2022/09/14 00:16:19;;;;;;;8.20;1.00;;;;;;;;;;6216819;22;20023;-84
2022/09/14 00:18:52;;;;;;;8.07;1.27;;;;;;;;;;6253014;22;20019;-84
2022/09/14 00:21:22;;;;;;;6.03;1.30;;;;;;;;;;6252149;22;20019;-84
2022/09/14 00:23:49;;;;;;;7.65;1.20;;;;;;;;;;6252917;22;20026;-84
2022/09/14 00:26:24;;;;;;;7.13;1.05;;;;;;;;;;6279891;22;20073;-84
2022/09/14 00:28:54;;;;;;;8.27;1.23;;;;;;;;;;6278335;22;20498;-84
2022/09/14 00:31:22;;;;;;;8.63;1.20;;;;;;;;;;6227119;22;20019;-84
2022/09/14 00:34:16;;;;;;;8.23;1.40;;;;;;;;;;6279290;22;20552;-84
2022/09/14 00:37:07;;;;;;;7.32;1.30;;;;;;;;;;6252240;22;20012;-84
2022/09/14 00:39:59;;;;;;;8.60;1.10;;;;;;;;;;6257397;22;20023;-84
2022/09/14 00:42:27;;;;;;;5.40;1.00;;;;;;;;;;6253178;22;20073;-83
2022/09/14 00:45:04;;;;;;;5.15;1.30;;;;;;;;;;6216303;22;20096;-83
2022/09/14 00:47:31;;;;;;;10.38;1.70;;;;;;;;;;6251994;22;20015;-83
2022/09/14 00:50:01;;;;;;;6.38;1.50;;;;;;;;;;6279920;22;20047;-84
2022/09/14 00:52:43;;;;;;;10.68;1.30;;;;;;;;;;6279298;22;20026;-84
2022/09/14 00:55:15;;;;;;;7.55;1.35;;;;;;;;;;6217771;22;20028;-83
2022/09/14 00:57:52;;;;;;;5.72;1.17;;;;;;;;;;6278721;22;20015;-84
2022/09/14 01:00:23;;;;;;;9.90;1.13;;;;;;;;;;6279287;22;20532;-84
2022/09/14 01:02:51;;;;;;;3.30;1.20;;;;;;;;;;6251923;22;20015;-82
2022/09/14 01:05:28;;;;;;;9.80;1.25;;;;;;;;;;6279368;22;20020;-83
2022/09/14 01:08:37;;;;;;;6.90;1.15;;;;;;;;;;6279466;22;20020;-84
2022/09/14 01:11:36;;;;;;;8.27;1.30;;;;;;;;;;6279127;22;20055;-84
2022/09/14 01:14:25;;;;;;;8.23;1.10;;;;;;;;;;6252193;22;20035;-84
2022/09/14 01:18:09;;;;;;;5.70;1.13;;;;;;;;;;6241627;22;20030;-84
2022/09/14 01:20:59;;;;;;;5.70;0.90;;;;;;;;;;6232980;22;20070;-83
2022/09/14 01:23:58;;;;;;;3.05;1.00;;;;;;;;;;6267966;22;20636;-83
2022/09/14 01:27:00;;;;;;;5.78;1.10;;;;;;;;;;6278577;22;20027;-83
2022/09/14 01:30:16;;;;;;;3.25;1.02;;;;;;;;;;6278653;22;20023;-83
2022/09/14 01:33:07;;;;;;;3.40;1.30;;;;;;;;;;6184479;23;20028;-83
2022/09/14 01:36:05;;;;;;;3.40;1.10;;;;;;;;;;6184727;23;20031;-83
2022/09/14 01:38:59;;;;;;;5.05;1.00;;;;;;;;;;6183238;23;20040;-83
2022/09/14 01:41:30;;;;;;;5.40;1.25;;;;;;;;;;6184363;23;20397;-83
2022/09/14 01:44:00;;;;;;;4.47;1.10;;;;;;;;;;6149279;23;20544;-84
2022/09/14 01:46:38;;;;;;;4.88;1.10;;;;;;;;;;6173872;23;20024;-83
2022/09/14 01:52:46;;;;;;;4.75;1.00;;;;;;;;;;6184759;23;20032;-83
2022/09/14 01:55:21;;;;;;;5.72;1.50;;;;;;;;;;6186310;23;20104;-84
2022/09/14 01:58:11;;;;;;;8.32;1.27;;;;;;;;;;6185201;23;20124;-83
2022/09/14 02:01:06;;;;;;;6.85;1.70;;;;;;;;;;6163482;23;20095;-83
2022/09/14 02:04:04;;;;;;;8.32;1.17;;;;;;;;;;6248687;22;20023;-83
2022/09/14 02:06:36;;;;;;;6.63;1.63;;;;;;;;;;6279497;22;20019;-84
2022/09/14 02:09:06;;;;;;;6.10;1.48;;;;;;;;;;6280591;22;20015;-84
2022/09/14 02:11:33;;;;;;;8.57;1.52;;;;;;;;;;6280931;22;20038;-84
2022/09/14 02:14:07;;;;;;;6.85;0.90;;;;;;;;;;6279675;22;20027;-83
2022/09/14 02:16:42;;;;;;;9.30;1.20;;;;;;;;;;6241697;22;20027;-83
2022/09/14 02:19:09;;;;;;;4.50;1.25;;;;;;;;;;6280658;22;20030;-83
2022/09/14 02:21:37;;;;;;;4.97;1.45;;;;;;;;;;6280207;22;20020;-83
2022/09/14 02:24:06;;;;;;;4.00;1.13;;;;;;;;;;6254538;22;20341;-84
2022/09/14 02:26:34;;;;;;;5.35;1.38;;;;;;;;;;6279877;22;20012;-83
2022/09/14 02:29:01;;;;;;;7.32;1.23;;;;;;;;;;6280100;22;20046;-83
2022/09/14 02:32:08;;;;;;;7.55;1.70;;;;;;;;;;6258670;22;20145;-82
2022/09/14 02:34:53;;;;;;;6.43;1.35;;;;;;;;;;6252613;22;20027;-83
2022/09/14 02:37:33;;;;;;;7.85;1.40;;;;;;;;;;6243305;22;20030;-83
2022/09/14 02:40:30;;;;;;;4.40;1.15;;;;;;;;;;6278675;22;20019;-84
2022/09/14 02:43:34;;;;;;;5.32;1.10;;;;;;;;;;6279811;22;20007;-83
2022/09/14 02:46:01;;;;;;;6.80;1.95;;;;;;;;;;6278432;22;20047;-84
2022/09/14 02:49:11;;;;;;;4.97;1.10;;;;;;;;;;6259236;22;20510;-83
2022/09/14 02:52:25;;;;;;;6.88;1.52;;;;;;;;;;6280621;22;20333;-84
2022/09/14 02:55:20;;;;;;;5.60;1.08;;;;;;;;;;6186193;23;20085;-83
2022/09/14 03:00:55;;;;;;;5.68;1.20;;;;;;;;;;6185489;23;20025;-83
2022/09/14 03:03:23;;;;;;;3.80;1.02;;;;;;;;;;6185661;23;20081;-83
2022/09/14 03:06:07;;;;;;;6.00;1.25;;;;;;;;;;6186643;23;20054;-83
2022/09/14 03:08:42;;;;;;;5.63;1.23;;;;;;;;;;6186018;23;20048;-83
2022/09/14 03:11:15;;;;;;;4.05;1.10;;;;;;;;;;6186065;23;20229;-84
2022/09/14 03:13:47;;;;;;;9.63;1.58;;;;;;;;;;6185705;23;20152;-83
2022/09/14 03:16:17;;;;;;;3.78;1.15;;;;;;;;;;6184643;23;20028;-84
2022/09/14 03:19:11;;;;;;;7.47;1.15;;;;;;;;;;6176421;23;20717;-83
2022/09/14 03:21:39;;;;;;;6.35;1.23;;;;;;;;;;6185717;23;20076;-83
2022/09/14 03:24:07;;;;;;;6.28;1.23;;;;;;;;;;6186781;23;20029;-83
2022/09/14 03:26:39;;;;;;;7.07;1.48;;;;;;;;;;6185312;23;20096;-83
2022/09/14 03:29:07;;;;;;;3.95;1.60;;;;;;;;;;6186298;23;20076;-83
2022/09/14 03:31:59;;;;;;;7.38;1.55;;;;;;;;;;6278931;22;20034;-83
2022/09/14 03:34:27;;;;;;;5.10;1.38;;;;;;;;;;6253145;22;20020;-84
2022/09/14 03:36:55;;;;;;;6.82;1.50;;;;;;;;;;6279848;22;20576;-84
2022/09/14 03:39:23;;;;;;;9.13;1.50;;;;;;;;;;6277934;22;20019;-83
2022/09/14 03:41:51;;;;;;;4.85;1.30;;;;;;;;;;6253489;22;20019;-83
2022/09/14 03:44:19;;;;;;;8.02;1.50;;;;;;;;;;6280392;22;20019;-83
2022/09/14 03:46:47;;;;;;;5.28;1.48;;;;;;;;;;6279504;22;20466;-84
2022/09/14 03:49:15;;;;;;;8.77;1.58;;;;;;;;;;6218335;22;20031;-84
2022/09/14 03:51:47;;;;;;;5.18;1.20;;;;;;;;;;6251918;22;20015;-84
2022/09/14 03:54:15;;;;;;;7.10;1.63;;;;;;;;;;6243420;22;20760;-83
2022/09/14 03:56:47;;;;;;;3.72;1.40;;;;;;;;;;6280502;22;20016;-83
2022/09/14 03:59:15;;;;;;;5.55;1.30;;;;;;;;;;6254067;22;20015;-83
2022/09/14 04:02:07;;;;;;;6.15;1.05;;;;;;;;;;6251021;22;20112;-84
2022/09/14 04:04:39;;;;;;;4.82;1.52;;;;;;;;;;6268115;22;20019;-83
2022/09/14 04:07:07;;;;;;;5.95;1.50;;;;;;;;;;6280542;22;20702;-83
2022/09/14 04:09:37;;;;;;;6.80;1.30;;;;;;;;;;6278679;22;20097;-83
2022/09/14 04:12:05;;;;;;;7.25;1.73;;;;;;;;;;6279600;22;20904;-83
2022/09/14 04:14:33;;;;;;;4.20;1.40;;;;;;;;;;6280418;22;20024;-83
2022/09/14 04:17:01;;;;;;;5.88;1.20;;;;;;;;;;6279133;22;20020;-83
2022/09/14 04:19:29;;;;;;;6.22;1.65;;;;;;;;;;6279144;22;20829;-84
2022/09/14 04:22:21;;;;;;;5.80;1.40;;;;;;;;;;6280310;22;20015;-84
2022/09/14 04:24:53;;;;;;;4.55;1.20;;;;;;;;;;6280135;22;20918;-84
2022/09/14 04:27:21;;;;;;;5.63;1.65;;;;;;;;;;6280299;22;20046;-83
2022/09/14 04:29:49;;;;;;;4.22;1.40;;;;;;;;;;6279431;22;20019;-83
2022/09/14 04:32:17;;;;;;;5.03;1.10;;;;;;;;;;6251947;22;20023;-84
2022/09/14 04:34:50;;;;;;;5.40;1.00;;;;;;;;;;6279948;22;20380;-83
2022/09/14 04:37:17;;;;;;;3.88;1.25;;;;;;;;;;6252628;22;20022;-84
2022/09/14 04:39:45;;;;;;;5.07;1.40;;;;;;;;;;6242898;22;20028;-83
2022/09/14 04:42:17;;;;;;;4.97;1.30;;;;;;;;;;6280016;22;20325;-83
2022/09/14 04:44:45;;;;;;;4.97;1.50;;;;;;;;;;6279704;22;20030;-82
2022/09/14 04:47:39;;;;;;;8.18;1.80;;;;;;;;;;6278045;22;20020;-83
2022/09/14 04:50:07;;;;;;;7.72;1.52;;;;;;;;;;6278262;22;20020;-83
2022/09/14 04:52:35;;;;;;;8.18;1.83;;;;;;;;;;6252704;22;20332;-84
2022/09/14 04:55:28;;;;;;;7.07;1.83;;;;;;;;;;6259398;22;20061;-84
2022/09/14 04:57:55;;;;;;;4.60;1.35;;;;;;;;;;6216533;22;20489;-82
2022/09/14 05:00:47;;;;;;;4.38;1.33;;;;;;;;;;6281713;22;20016;-83
2022/09/14 05:03:19;;;;;;;5.10;1.58;;;;;;;;;;6271164;22;20363;-82
2022/09/14 05:05:52;;;;;;;4.35;1.52;;;;;;;;;;6278149;22;20024;-83
2022/09/14 05:08:19;;;;;;;6.38;1.70;;;;;;;;;;6281391;22;20039;-82
2022/09/14 05:10:47;;;;;;;5.57;1.42;;;;;;;;;;6284404;22;20469;-83
2022/09/14 05:13:15;;;;;;;4.78;1.75;;;;;;;;;;6256679;22;20059;-83
2022/09/14 05:15:43;;;;;;;4.15;1.33;;;;;;;;;;6280382;22;20023;-82
2022/09/14 05:18:16;;;;;;;5.78;1.63;;;;;;;;;;6272900;22;20012;-83
2022/09/14 05:21:24;;;;;;;8.45;1.65;;;;;;;;;;6249644;22;20027;-82
2022/09/14 05:24:07;;;;;;;8.02;1.75;;;;;;;;;;6262399;22;20020;-84
2022/09/14 05:26:35;;;;;;;5.70;1.70;;;;;;;;;;6289456;22;20020;-84
2022/09/14 05:29:03;;;;;;;15.23;1.85;;;;;;;;;;6254258;22;20027;-84
2022/09/14 05:31:37;;;;;;;5.57;1.70;;;;;;;;;;6286333;22;20029;-84
2022/09/14 05:34:05;;;;;;;7.63;1.83;;;;;;;;;;6283213;22;20385;-85
2022/09/14 05:37:34;;;;;;;9.73;1.70;;;;;;;;;;6277351;22;20359;-84
2022/09/14 05:40:58;;;;;;;4.60;1.77;;;;;;;;;;6269619;22;20124;-82
2022/09/14 05:43:27;;;;;;;7.03;1.95;;;;;;;;;;6279099;22;20020;-82
2022/09/14 05:46:19;;;;;;;9.05;2.05;;;;;;;;;;6257569;22;20027;-82
2022/09/14 05:49:11;;;;;;;9.70;1.92;;;;;;;;;;6253407;22;20046;-82
2022/09/14 05:51:43;;;;;;;4.88;1.73;;;;;;;;;;6279383;22;20094;-83
2022/09/14 05:54:37;;;;;;;6.22;1.95;;;;;;;;;;6278729;22;20019;-82
2022/09/14 05:57:05;;;;;;;11.52;2.08;;;;;;;;;;6280484;22;20027;-83
2022/09/14 05:59:33;;;;;;;6.30;1.80;;;;;;;;;;6252643;22;20016;-83
2022/09/14 06:02:01;;;;;;;8.65;2.88;;;;;;;;;;6280001;22;20039;-84
2022/09/14 06:05:09;;;;;;;6.28;1.80;;;;;;;;;;6187067;23;20063;-81
2022/09/14 06:07:42;;;;;;;5.63;2.20;;;;;;;;;;6188576;23;20357;-81
2022/09/14 06:10:10;;;;;;;5.50;1.90;;;;;;;;;;6188638;23;20080;-81
2022/09/14 06:13:01;;;;;;;4.07;1.70;;;;;;;;;;6188669;23;20359;-81
2022/09/14 06:15:29;;;;;;;6.60;1.70;;;;;;;;;;6188348;23;20076;-81
2022/09/14 06:17:57;;;;;;;5.50;1.83;;;;;;;;;;6187002;23;20025;-81
2022/09/14 06:20:25;;;;;;;7.90;2.47;;;;;;;;;;6187722;23;20021;-81
2022/09/14 06:22:54;;;;;;;11.82;2.03;;;;;;;;;;6130809;23;20028;-81
2022/09/14 06:25:22;;;;;;;6.13;1.90;;;;;;;;;;6188743;23;20029;-81
2022/09/14 06:27:53;;;;;;;5.05;1.52;;;;;;;;;;6164355;23;20041;-81
2022/09/14 06:31:13;;;;;;;5.88;1.77;;;;;;;;;;6184933;23;20020;-81
2022/09/14 06:34:05;;;;;;;3.92;1.95;;;;;;;;;;6166123;23;20016;-81
2022/09/14 06:36:37;;;;;;;7.85;1.90;;;;;;;;;;6240805;22;20043;-81
2022/09/14 06:39:05;;;;;;;8.43;2.03;;;;;;;;;;6282655;22;20042;-81
2022/09/14 06:41:33;;;;;;;5.80;1.83;;;;;;;;;;6255803;22;20020;-83
2022/09/14 06:44:19;;;;;;;5.43;1.80;;;;;;;;;;6242498;22;20030;-83
2022/09/14 06:46:51;;;;;;;9.40;2.25;;;;;;;;;;6277665;22;20028;-82
2022/09/14 06:49:21;;;;;;;7.05;2.13;;;;;;;;;;6278833;22;20089;-82
2022/09/14 06:52:13;;;;;;;13.38;2.28;;;;;;;;;;6252975;22;20015;-82
2022/09/14 06:54:41;;;;;;;4.60;2.03;;;;;;;;;;6280254;22;20022;-82
2022/09/14 06:57:09;;;;;;;7.68;1.90;;;;;;;;;;6280941;22;20027;-81
2022/09/14 06:59:37;;;;;;;10.32;1.88;;;;;;;;;;6281211;22;20050;-82
2022/09/14 07:02:05;;;;;;;7.13;2.00;;;;;;;;;;6279691;22;20027;-82
2022/09/14 07:05:03;;;;;;;7.05;2.17;;;;;;;;;;6268708;22;20019;-82
2022/09/14 07:07:31;;;;;;;9.00;2.05;;;;;;;;;;6281295;22;20498;-81
2022/09/14 07:09:59;;;;;;;4.32;1.90;;;;;;;;;;6281569;22;20024;-82
2022/09/14 07:12:27;;;;;;;8.10;1.98;;;;;;;;;;6281035;22;20024;-82
2022/09/14 07:14:55;;;;;;;10.15;2.20;;;;;;;;;;6280191;22;20022;-82
2022/09/14 07:17:27;;;;;;;8.55;1.92;;;;;;;;;;6279652;22;20023;-82
2022/09/14 07:22:47;;;;;;;10.40;1.92;;;;;;;;;;6280650;22;20355;-82
2022/09/14 07:25:19;;;;;;;8.45;1.90;;;;;;;;;;6280270;22;20030;-82
2022/09/14 07:27:47;;;;;;;7.70;1.80;;;;;;;;;;6243013;22;20051;-82
2022/09/14 07:30:40;;;;;;;8.73;2.15;;;;;;;;;;6279919;22;20011;-82
2022/09/14 07:33:13;;;;;;;8.60;1.67;;;;;;;;;;6278830;22;20046;-82
2022/09/14 07:35:41;;;;;;;6.65;2.08;;;;;;;;;;6281049;22;20019;-82
2022/09/14 07:38:09;;;;;;;10.05;2.00;;;;;;;;;;6252983;22;20016;-81
2022/09/14 07:40:41;;;;;;;6.30;1.60;;;;;;;;;;6280901;22;20109;-82
2022/09/14 07:43:09;;;;;;;6.03;2.20;;;;;;;;;;6280561;22;20126;-82
2022/09/14 07:45:37;;;;;;;9.95;2.15;;;;;;;;;;6279932;22;20023;-82
2022/09/14 07:48:05;;;;;;;6.90;1.63;;;;;;;;;;6279469;22;20448;-82
2022/09/14 07:50:38;;;;;;;10.52;2.15;;;;;;;;;;6280406;22;20073;-82
2022/09/14 07:53:05;;;;;;;13.25;2.22;;;;;;;;;;6268956;22;20019;-82
2022/09/14 07:55:33;;;;;;;4.97;1.52;;;;;;;;;;6280253;22;20020;-82
2022/09/14 07:58:01;;;;;;;7.88;1.83;;;;;;;;;;6253401;22;20042;-82
2022/09/14 08:00:29;;;;;;;9.40;2.42;;;;;;;;;;6279876;22;20101;-82
2022/09/14 08:02:58;;;;;;;7.22;1.63;;;;;;;;;;6276954;22;20023;-82
2022/09/14 08:05:25;;;;;;;9.60;1.52;;;;;;;;;;6253446;22;20507;-82
2022/09/14 08:07:54;;;;;;;7.38;1.60;;;;;;;;;;6279991;22;20099;-82
2022/09/14 08:10:47;;;;;;;9.20;1.40;;;;;;;;;;6279669;22;20020;-82
2022/09/14 08:13:16;;;;;;;16.67;2.78;;;;;;;;;;6279476;22;20019;-82
2022/09/14 08:15:43;;;;;;;4.40;1.42;;;;;;;;;;6279781;22;20026;-82
2022/09/14 08:18:15;;;;;;;8.95;1.25;;;;;;;;;;6267021;22;20042;-82
2022/09/14 08:20:47;;;;;;;9.10;1.83;;;;;;;;;;6268372;22;20031;-82
2022/09/14 08:23:15;;;;;;;21.48;2.70;;;;;;;;;;6280085;22;20459;-82
2022/09/14 08:25:43;;;;;;;3.30;1.10;;;;;;;;;;6279335;22;20026;-82
2022/09/14 08:28:11;;;;;;;6.80;1.42;;;;;;;;;;6279914;22;20015;-82
2022/09/14 08:30:40;;;;;;;4.20;1.15;;;;;;;;;;6279869;22;20020;-82
2022/09/14 08:33:07;;;;;;;8.68;1.45;;;;;;;;;;6277943;22;20050;-82
2022/09/14 08:36:25;;;;;;;7.13;1.48;;;;;;;;;;6278374;22;20082;-82
2022/09/14 08:38:57;;;;;;;3.13;0.90;;;;;;;;;;6280157;22;20451;-82
2022/09/14 08:41:53;;;;;;;7.72;1.20;;;;;;;;;;6279871;22;20018;-82
2022/09/14 08:44:24;;;;;;;8.10;1.90;;;;;;;;;;6243052;22;20404;-82
2022/09/14 08:47:08;;;;;;;7.15;1.30;;;;;;;;;;6277437;22;20016;-82
2022/09/14 08:49:45;;;;;;;7.82;1.20;;;;;;;;;;6242464;22;20024;-82
2022/09/14 08:52:44;;;;;;;6.68;1.75;;;;;;;;;;6252162;22;20031;-82
2022/09/14 08:55:34;;;;;;;6.35;1.10;;;;;;;;;;6279280;22;20027;-82
2022/09/14 08:58:19;;;;;;;6.05;1.23;;;;;;;;;;6278977;22;20012;-82
2022/09/14 09:00:54;;;;;;;6.40;0.95;;;;;;;;;;6252411;22;20046;-82
2022/09/14 09:04:14;;;;;;;9.23;1.20;;;;;;;;;;6240643;22;20503;-83
2022/09/14 09:06:59;;;;;;;5.63;1.25;;;;;;;;;;6276292;22;20027;-83
2022/09/14 09:09:53;;;;;;;4.63;1.13;;;;;;;;;;6277699;22;20046;-82
2022/09/14 09:12:33;;;;;;;7.57;2.45;;;;;;;;;;6252430;22;20020;-83
2022/09/14 09:15:23;;;;;;;5.43;1.10;;;;;;;;;;6265984;22;20765;-83
2022/09/14 09:18:23;;;;;;;6.27;1.00;;;;;;;;;;6277866;22;20621;-83
2022/09/14 09:21:02;;;;;;;6.55;1.13;;;;;;;;;;6216592;22;20024;-83
2022/09/14 09:24:15;;;;;;;6.22;1.00;;;;;;;;;;6241516;22;20012;-82
2022/09/14 09:27:14;;;;;;;4.37;1.00;;;;;;;;;;6278205;22;20076;-83
2022/09/14 09:29:43;;;;;;;7.78;1.20;;;;;;;;;;6278999;22;20016;-83
2022/09/14 09:32:24;;;;;;;4.80;0.75;;;;;;;;;;6276008;22;20737;-83
2022/09/14 09:34:55;;;;;;;7.38;1.15;;;;;;;;;;6240765;22;20034;-83
2022/09/14 09:37:37;;;;;;;5.20;1.10;;;;;;;;;;6251477;22;20110;-83
2022/09/14 09:40:27;;;;;;;5.82;0.95;;;;;;;;;;6276699;22;20043;-83
2022/09/14 09:43:07;;;;;;;8.88;1.55;;;;;;;;;;6250936;22;20020;-83
2022/09/14 09:46:03;;;;;;;4.63;0.80;;;;;;;;;;6239515;22;20050;-83
2022/09/14 09:48:37;;;;;;;7.20;1.00;;;;;;;;;;6252601;22;20019;-83
2022/09/14 09:51:30;;;;;;;4.57;1.10;;;;;;;;;;6255844;22;20015;-83
2022/09/14 09:54:11;;;;;;;6.95;1.58;;;;;;;;;;6247969;22;20073;-83
2022/09/14 09:57:02;;;;;;;6.07;1.02;;;;;;;;;;6278020;22;20019;-83
2022/09/14 09:59:45;;;;;;;7.80;0.98;;;;;;;;;;6255456;22;20047;-85
2022/09/14 10:02:34;;;;;;;6.55;1.52;;;;;;;;;;6218878;22;20632;-85
2022/09/14 10:05:21;;;;;;;9.48;1.40;;;;;;;;;;6225311;22;20028;-85
2022/09/14 10:08:08;;;;;;;5.53;1.42;;;;;;;;;;6269694;22;20022;-85
2022/09/14 10:10:49;;;;;;;;;;;;;;;;;;6196821;22;20084;-85
2022/09/14 10:14:56;;;;;;;7.65;1.25;;;;;;;;;;6268802;22;20236;-83
2022/09/14 10:18:01;;;;;;;8.55;1.08;;;;;;;;;;6246769;22;20123;-85
2022/09/14 10:20:30;;;;;;;9.20;1.45;;;;;;;;;;6211600;22;20026;-84
2022/09/14 10:23:21;;;;;;;4.00;0.93;;;;;;;;;;6259165;22;20016;-84
2022/09/14 10:26:11;;;;;;;6.13;1.15;;;;;;;;;;6285973;22;20099;-84
2022/09/14 10:28:48;;;;;;;8.10;1.48;;;;;;;;;;6242568;22;20050;-85
2022/09/14 10:31:30;;;;;;;3.50;0.90;;;;;;;;;;6284015;22;20081;-84
2022/09/14 10:34:14;;;;;;;8.68;1.25;;;;;;;;;;6250131;22;20103;-84
2022/09/14 10:36:50;;;;;;;7.35;1.50;;;;;;;;;;6259162;22;20020;-84
2022/09/14 10:39:26;;;;;;;3.97;1.00;;;;;;;;;;6287750;22;20027;-84
2022/09/14 10:42:37;;;;;;;5.47;1.38;;;;;;;;;;6284394;22;20019;-84
2022/09/14 10:45:27;;;;;;;5.68;1.00;;;;;;;;;;6249406;22;20409;-84
2022/09/14 10:48:42;;;;;;;5.43;1.40;;;;;;;;;;6259694;22;20027;-84
2022/09/14 10:51:32;;;;;;;5.68;1.20;;;;;;;;;;6287164;22;20020;-85
2022/09/14 10:54:32;;;;;;;;;;;;;;;;;;6286920;22;20015;-85
2022/09/14 10:57:17;;;;;;;5.68;0.98;;;;;;;;;;6285341;22;19922;-84
2022/09/14 10:59:53;;;;;;;8.13;1.42;;;;;;;;;;6286201;22;20020;-84
2022/09/14 11:02:30;;;;;;;6.95;1.00;;;;;;;;;;6273326;22;20023;-84
2022/09/14 11:05:11;;;;;;;5.75;1.05;;;;;;;;;;6286512;22;20082;-84
2022/09/14 11:08:04;;;;;;;7.47;1.38;;;;;;;;;;6285501;22;20019;-85
2022/09/14 11:10:51;;;;;;;6.05;1.52;;;;;;;;;;6285586;22;20020;-84
2022/09/14 11:13:37;;;;;;;6.22;2.08;;;;;;;;;;6286054;22;20474;-84
2022/09/14 11:16:28;;;;;;;8.10;1.23;;;;;;;;;;6247870;22;20024;-85
2022/09/14 11:19:13;;;;;;;5.03;1.08;;;;;;;;;;6258152;22;20015;-84
2022/09/14 11:21:55;;;;;;;7.07;1.33;;;;;;;;;;6282567;22;20107;-84
2022/09/14 11:24:34;;;;;;;4.00;1.00;;;;;;;;;;6285360;22;20073;-84
2022/09/14 11:27:04;;;;;;;4.22;0.85;;;;;;;;;;6259318;22;20020;-84
2022/09/14 11:29:37;;;;;;;6.60;1.55;;;;;;;;;;6273738;22;20019;-84
2022/09/14 11:32:42;;;;;;;6.10;0.98;;;;;;;;;;6257572;22;20046;-84
2022/09/14 11:35:20;;;;;;;4.93;1.10;;;;;;;;;;6286858;22;20035;-84
2022/09/14 11:38:06;;;;;;;6.00;1.33;;;;;;;;;;6260981;22;20035;-85
2022/09/14 11:40:39;;;;;;;6.90;1.40;;;;;;;;;;6249248;22;20027;-84
2022/09/14 11:43:44;;;;;;;4.40;1.17;;;;;;;;;;6284689;22;20015;-84
2022/09/14 11:46:37;;;;;;;4.35;1.25;;;;;;;;;;6268712;22;20051;-85
2022/09/14 11:53:25;;;;;;;7.78;1.40;;;;;;;;;;6285332;22;20035;-85
2022/09/14 11:55:59;;;;;;;9.50;1.40;;;;;;;;;;6285433;22;20020;-85
2022/09/14 11:58:28;;;;;;;9.50;1.25;;;;;;;;;;6255120;22;20101;-84
2022/09/14 12:01:31;;;;;;;5.68;1.45;;;;;;;;;;6283396;22;20008;-86
2022/09/14 12:04:04;;;;;;;6.38;1.35;;;;;;;;;;6286435;22;20019;-85
2022/09/14 12:06:34;;;;;;;5.72;1.40;;;;;;;;;;6260282;22;20026;-86
2022/09/14 12:09:21;;;;;;;5.53;1.10;;;;;;;;;;6281013;22;20016;-86
2022/09/14 12:12:07;;;;;;;7.78;1.25;;;;;;;;;;6277663;22;20019;-86
2022/09/14 12:15:28;;;;;;;6.93;1.30;;;;;;;;;;6253496;22;20027;-86
2022/09/14 12:18:50;;;;;;;6.28;1.10;;;;;;;;;;6264867;22;20043;-84
2022/09/14 12:21:32;;;;;;;8.27;1.10;;;;;;;;;;6199640;22;20359;-84
2022/09/14 12:44:23;;;;;;;9.27;1.20;;;;;;;;;;5929597;24;20107;-83
2022/09/14 12:48:11;;;;;;;8.50;1.52;;;;;;;;;;5971592;23;20103;-83
2022/09/14 12:51:25;;;;;;;7.80;1.52;;;;;;;;;;6043711;23;20492;-85
2022/09/14 12:54:08;;;;;;;7.43;1.10;;;;;;;;;;6045783;23;20058;-84
2022/09/14 12:56:56;;;;;;;3.13;1.00;;;;;;;;;;6045383;23;20022;-85
2022/09/14 12:59:35;;;;;;;9.60;1.60;;;;;;;;;;6078458;23;20026;-85
2022/09/14 13:02:34;;;;;;;6.57;1.27;;;;;;;;;;6102214;23;20061;-85
2022/09/14 13:05:31;;;;;;;7.15;1.20;;;;;;;;;;6102612;23;20479;-85
2022/09/14 13:09:05;;;;;;;7.13;1.20;;;;;;;;;;6091487;23;20042;-85
2022/09/14 13:13:19;;;;;;;5.55;1.23;;;;;;;;;;5971134;24;20039;-85
2022/09/14 13:16:04;;;;;;;6.53;1.10;;;;;;;;;;5979378;24;20107;-86
2022/09/14 13:19:28;;;;;;;7.45;1.35;;;;;;;;;;5970756;24;20534;-86
2022/09/14 13:22:18;;;;;;;8.85;1.63;;;;;;;;;;5970879;23;20032;-84
2022/09/14 13:25:02;;;;;;;4.93;1.20;;;;;;;;;;6029919;23;20026;-85
2022/09/14 13:27:49;;;;;;;5.85;1.60;;;;;;;;;;6103931;23;20030;-85
2022/09/14 13:30:34;;;;;;;7.68;1.30;;;;;;;;;;6086356;23;20026;-82
2022/09/14 13:33:16;;;;;;;5.40;1.33;;;;;;;;;;6082694;23;20023;-84
2022/09/14 13:36:04;;;;;;;6.90;1.00;;;;;;;;;;6071203;23;20117;-85
2022/09/14 13:39:02;;;;;;;5.03;1.75;;;;;;;;;;6082291;23;20411;-82
2022/09/14 13:41:43;;;;;;;6.30;1.10;;;;;;;;;;6086322;23;20041;-83
2022/09/14 13:44:30;;;;;;;5.93;1.10;;;;;;;;;;6222664;22;20034;-82
2022/09/14 13:47:17;;;;;;;4.57;1.20;;;;;;;;;;6244489;22;20020;-83
2022/09/14 13:49:47;;;;;;;8.90;1.83;;;;;;;;;;6177869;22;20019;-84
2022/09/14 13:52:21;;;;;;;5.72;1.25;;;;;;;;;;6257795;22;20023;-84
2022/09/14 13:55:24;;;;;;;5.53;1.38;;;;;;;;;;6252846;22;20031;-84
2022/09/14 13:58:21;;;;;;;7.97;1.40;;;;;;;;;;6266621;22;20019;-84
2022/09/14 14:00:49;;;;;;;8.32;1.42;;;;;;;;;;6287029;22;20020;-84
2022/09/14 14:03:28;;;;;;;7.18;1.38;;;;;;;;;;6262597;22;20019;-84
2022/09/14 14:05:55;;;;;;;5.22;1.10;;;;;;;;;;6251928;22;20030;-84
2022/09/14 14:08:30;;;;;;;6.78;1.33;;;;;;;;;;6260271;22;20019;-84
2022/09/14 14:10:59;;;;;;;6.15;1.50;;;;;;;;;;6259406;22;20026;-84
2022/09/14 14:13:30;;;;;;;10.63;1.17;;;;;;;;;;6284721;22;20268;-85
2022/09/14 14:16:20;;;;;;;6.20;1.20;;;;;;;;;;6282790;22;20706;-85
2022/09/14 14:18:52;;;;;;;3.63;1.15;;;;;;;;;;6260546;22;20023;-85
2022/09/14 14:21:21;;;;;;;6.57;1.60;;;;;;;;;;6250511;22;20439;-85
2022/09/14 14:24:13;;;;;;;4.07;0.93;;;;;;;;;;6263572;22;20046;-85
2022/09/14 14:26:50;;;;;;;8.43;1.65;;;;;;;;;;6287651;22;20526;-85
2022/09/14 14:30:12;;;;;;;7.53;1.20;;;;;;;;;;6278348;22;20015;-87
2022/09/14 14:33:57;;;;;;;8.68;1.95;;;;;;;;;;6115468;23;20371;-83
2022/09/14 14:38:22;;;;;;;6.85;1.30;;;;;;;;;;6030402;23;20027;-83
2022/09/14 14:41:28;;;;;;;4.90;1.15;;;;;;;;;;5976101;24;20373;-83
2022/09/14 14:45:25;;;;;;;6.20;1.02;;;;;;;;;;5959877;24;20073;-87
2022/09/14 14:48:43;;;;;;;2.60;1.03;;;;;;;;;;5982593;24;20043;-83
2022/09/14 14:52:59;;;;;;;3.03;1.15;;;;;;;;;;5973643;24;20739;-82
2022/09/14 14:56:10;;;;;;;2.72;0.95;;;;;;;;;;5981312;24;20364;-83
2022/09/14 15:00:16;;;;;;;5.68;1.10;;;;;;;;;;5974244;24;20028;-83
2022/09/14 15:04:33;;;;;;;2.50;1.08;;;;;;;;;;6006743;23;20023;-83
2022/09/14 15:08:35;;;;;;;5.07;0.98;;;;;;;;;;6029791;23;20110;-83
2022/09/14 15:11:44;;;;;;;2.55;1.05;;;;;;;;;;6051618;23;20027;-85
2022/09/14 15:14:18;;;;;;;3.75;0.90;;;;;;;;;;6068828;23;20537;-84
2022/09/14 15:16:49;;;;;;;4.22;1.00;;;;;;;;;;6146358;23;20928;-85
2022/09/14 15:19:17;;;;;;;4.90;1.00;;;;;;;;;;6163044;23;20118;-85
2022/09/14 15:21:45;;;;;;;3.88;1.00;;;;;;;;;;6163214;23;20021;-85
2022/09/14 15:24:17;;;;;;;2.55;1.00;;;;;;;;;;6163799;23;20164;-85
2022/09/14 15:28:25;;;;;;;3.67;0.77;;;;;;;;;;6117453;23;20038;-84
2022/09/14 15:31:36;;;;;;;2.38;0.95;;;;;;;;;;6111358;23;20037;-84
2022/09/14 15:34:20;;;;;;;4.57;1.00;;;;;;;;;;6141944;23;20029;-83
2022/09/14 15:37:13;;;;;;;1.83;0.73;;;;;;;;;;6162893;23;20024;-84
2022/09/14 15:39:58;;;;;;;3.63;0.85;;;;;;;;;;6183526;23;20108;-84
2022/09/14 15:42:59;;;;;;;3.15;0.90;;;;;;;;;;6156934;23;20519;-86
2022/09/14 15:45:41;;;;;;;3.13;0.68;;;;;;;;;;6201860;23;20024;-85
2022/09/14 15:48:43;;;;;;;4.97;0.80;;;;;;;;;;6188308;23;20035;-85
2022/09/14 15:51:25;;;;;;;4.07;0.75;;;;;;;;;;6204769;23;20020;-84
2022/09/14 15:54:33;;;;;;;3.28;0.68;;;;;;;;;;6227516;23;20027;-84
2022/09/14 15:58:42;;;;;;;1.38;0.50;;;;;;;;;;6247953;22;20390;-83
2022/09/14 16:01:49;;;;;;;4.13;0.77;;;;;;;;;;6284491;22;20027;-85
2022/09/14 16:04:17;;;;;;;1.88;0.43;;;;;;;;;;6286102;22;20016;-85
2022/09/14 16:06:53;;;;;;;2.35;0.80;;;;;;;;;;6225776;22;20046;-85
2022/09/14 16:10:59;;;;;;;3.38;0.98;;;;;;;;;;6270767;22;20028;-83
2022/09/14 16:15:29;;;;;;;3.00;0.85;;;;;;;;;;6175877;23;20455;-83
2022/09/14 16:19:56;;;;;;;2.83;0.47;;;;;;;;;;6177889;23;20454;-83
2022/09/14 16:23:55;;;;;;;2.63;0.70;;;;;;;;;;6185458;23;20052;-83
2022/09/14 16:28:12;;;;;;;2.70;0.75;;;;;;;;;;6174164;23;20028;-87
2022/09/14 16:37:00;;;;;;;1.02;0.60;;;;;;;;;;5949290;24;20028;-84
2022/09/14 16:39:42;;;;;;;2.42;0.70;;;;;;;;;;5960523;23;20512;-85
2022/09/14 16:42:24;;;;;;;3.25;0.90;;;;;;;;;;6008103;23;20079;-85
2022/09/14 16:45:06;;;;;;;3.92;0.82;;;;;;;;;;5978629;23;20420;-85
2022/09/14 16:47:58;;;;;;;1.10;0.45;;;;;;;;;;6046289;23;20027;-85
2022/09/14 16:50:42;;;;;;;2.80;0.82;;;;;;;;;;6027925;23;20508;-83
2022/09/14 16:53:39;;;;;;;2.95;0.80;;;;;;;;;;6037445;23;20030;-84
2022/09/14 16:56:24;;;;;;;3.95;0.98;;;;;;;;;;6018009;23;20027;-84
2022/09/14 16:58:53;;;;;;;5.22;0.77;;;;;;;;;;6040746;23;20035;-85
2022/09/14 17:01:58;;;;;;;1.85;0.80;;;;;;;;;;6048881;23;20459;-84
2022/09/14 17:09:06;;;;;;;1.63;0.80;;;;;;;;;;6067033;23;20022;-85
2022/09/14 17:11:34;;;;;;;3.85;1.15;;;;;;;;;;6042075;23;20037;-85
2022/09/14 17:14:04;;;;;;;3.13;1.10;;;;;;;;;;6032050;23;20051;-85
2022/09/14 17:16:56;;;;;;;2.55;0.95;;;;;;;;;;6064332;23;20103;-84